Time;durP1;ratioP1;P1;durP2;ratioP2;P2;SDS_P1;SDS_P2;PMS_P1;PMS_P2;Temp;Humidity;BMP_temperature;BMP_pressure;BME280_temperature;BME280_humidity;BME280_pressure;Samples;Min_cycle;Max_cycle;Signal;HPM_P1;HPM_P2
2023/06/04 00:01:04;;;;;;;5.38;1.40;;;18.20;70.20;;;;;;4977860;28;20030;-90
2023/06/04 00:03:34;;;;;;;2.45;1.13;;;18.10;70.40;;;;;;4969021;28;20061;-90
2023/06/04 00:06:00;;;;;;;5.45;1.20;;;18.10;70.50;;;;;;4969859;28;20106;-89
2023/06/04 00:08:31;;;;;;;1.83;1.02;;;18.00;70.50;;;;;;4968674;28;20027;-89
2023/06/04 00:11:00;;;;;;;1.83;1.10;;;18.00;70.60;;;;;;4951158;28;20131;-89
2023/06/04 00:13:34;;;;;;;2.70;1.35;;;18.00;70.60;;;;;;4967103;28;20125;-91
2023/06/04 00:16:00;;;;;;;5.53;1.65;;;17.90;70.60;;;;;;4951744;28;20062;-90
2023/06/04 00:18:30;;;;;;;3.28;1.30;;;17.90;70.70;;;;;;4951412;28;20003;-90
2023/06/04 00:20:56;;;;;;;2.15;1.15;;;17.80;70.80;;;;;;4985031;28;20061;-90
2023/06/04 00:23:24;;;;;;;7.90;1.52;;;17.80;71.00;;;;;;4966381;28;20039;-89
2023/06/04 00:25:50;;;;;;;2.95;1.65;;;17.80;71.00;;;;;;4969300;28;20027;-89
2023/06/04 00:28:19;;;;;;;3.97;1.30;;;17.80;71.20;;;;;;4955730;28;20058;-90
2023/06/04 00:30:45;;;;;;;5.13;1.42;;;17.70;71.20;;;;;;4958688;28;20030;-89
2023/06/04 00:33:14;;;;;;;5.50;1.17;;;17.70;71.50;;;;;;4975005;28;20499;-89
2023/06/04 00:35:40;;;;;;;4.40;1.25;;;17.70;71.40;;;;;;4976844;28;20035;-89
2023/06/04 00:38:05;;;;;;;4.25;1.35;;;17.60;71.30;;;;;;4964262;28;20380;-90
2023/06/04 00:40:31;;;;;;;3.58;1.40;;;17.60;71.40;;;;;;4978651;28;20031;-89
2023/06/04 00:42:57;;;;;;;4.38;1.42;;;17.60;71.50;;;;;;4959603;28;20031;-89
2023/06/04 00:45:31;;;;;;;3.60;1.10;;;17.50;71.50;;;;;;4990349;28;20035;-89
2023/06/04 00:47:57;;;;;;;2.13;1.25;;;17.50;71.50;;;;;;4974212;28;20022;-89
2023/06/04 00:50:24;;;;;;;1.60;1.05;;;17.50;71.50;;;;;;4977122;28;20038;-89
2023/06/04 00:52:57;;;;;;;6.72;1.75;;;17.40;71.50;;;;;;4980599;28;20026;-89
2023/06/04 00:55:23;;;;;;;2.83;1.40;;;17.40;71.50;;;;;;4979939;28;20043;-90
2023/06/04 00:57:53;;;;;;;3.90;1.30;;;17.40;71.50;;;;;;4964234;28;20035;-91
2023/06/04 01:00:19;;;;;;;4.07;1.52;;;17.30;71.40;;;;;;4964681;28;20062;-92
2023/06/04 01:02:51;;;;;;;4.07;1.50;;;17.30;71.60;;;;;;4981878;28;20023;-90
2023/06/04 01:05:31;;;;;;;5.25;1.50;;;17.20;71.70;;;;;;4983043;28;20062;-89
2023/06/04 01:07:58;;;;;;;2.72;1.10;;;17.20;71.70;;;;;;4983987;28;20031;-89
2023/06/04 01:10:23;;;;;;;2.70;1.30;;;17.20;71.80;;;;;;4994784;28;20034;-90
2023/06/04 01:12:50;;;;;;;4.15;1.42;;;17.20;71.90;;;;;;4971381;28;20023;-89
2023/06/04 01:15:18;;;;;;;3.55;1.48;;;17.20;72.00;;;;;;4972166;28;20090;-90
2023/06/04 01:17:52;;;;;;;2.33;1.40;;;17.10;72.10;;;;;;4970512;28;20073;-90
2023/06/04 01:20:28;;;;;;;2.50;1.33;;;17.10;72.00;;;;;;4970149;28;20047;-91
2023/06/04 01:22:56;;;;;;;2.75;1.27;;;17.10;71.80;;;;;;4975470;28;20026;-89
2023/06/04 01:25:49;;;;;;;4.15;1.30;;;17.00;71.90;;;;;;4989198;28;20019;-88
2023/06/04 01:28:23;;;;;;;3.53;1.35;;;16.90;71.60;;;;;;4967457;28;20093;-90
2023/06/04 01:30:50;;;;;;;2.00;1.10;;;16.90;72.00;;;;;;4968813;28;20034;-90
2023/06/04 01:33:20;;;;;;;4.55;1.60;;;16.90;72.00;;;;;;4967994;28;20426;-89
2023/06/04 01:35:49;;;;;;;4.68;1.23;;;16.90;72.00;;;;;;4968705;28;20027;-90
2023/06/04 01:38:15;;;;;;;3.92;1.20;;;16.80;72.00;;;;;;4969785;28;20034;-89
2023/06/04 01:40:45;;;;;;;2.80;1.40;;;16.80;72.10;;;;;;4969970;28;20471;-89
2023/06/04 01:43:11;;;;;;;4.32;1.30;;;16.80;72.20;;;;;;4989581;28;20027;-89
2023/06/04 01:45:39;;;;;;;5.25;1.48;;;16.70;72.30;;;;;;4970806;28;20026;-89
2023/06/04 01:48:13;;;;;;;3.08;1.40;;;16.70;72.30;;;;;;4968346;28;20027;-90
2023/06/04 01:50:40;;;;;;;3.25;1.20;;;16.70;72.10;;;;;;4969477;28;20038;-90
2023/06/04 01:53:06;;;;;;;2.80;1.30;;;16.70;72.30;;;;;;4968384;28;20037;-90
2023/06/04 01:55:37;;;;;;;2.70;1.25;;;16.60;72.40;;;;;;4987525;28;20023;-89
2023/06/04 01:58:17;;;;;;;3.13;1.20;;;16.60;72.40;;;;;;4989333;28;20019;-90
2023/06/04 02:00:43;;;;;;;3.17;1.40;;;16.60;72.60;;;;;;4957739;28;20035;-90
2023/06/04 02:03:10;;;;;;;3.58;1.50;;;16.60;72.60;;;;;;4971008;28;20058;-90
2023/06/04 02:05:46;;;;;;;3.70;1.30;;;16.60;72.80;;;;;;4967845;28;20042;-90
2023/06/04 02:08:21;;;;;;;4.03;1.40;;;16.50;72.60;;;;;;4954528;28;20089;-89
2023/06/04 02:10:47;;;;;;;5.03;1.38;;;16.50;72.70;;;;;;4971315;28;20054;-89
2023/06/04 02:13:21;;;;;;;3.83;1.35;;;16.50;72.90;;;;;;4972943;28;20102;-87
2023/06/04 02:15:47;;;;;;;4.40;1.55;;;16.40;72.80;;;;;;4960889;28;20042;-88
2023/06/04 02:18:20;;;;;;;4.65;1.50;;;16.40;72.80;;;;;;4964474;28;20141;-89
2023/06/04 02:20:47;;;;;;;4.05;1.20;;;16.40;72.70;;;;;;4962221;29;20047;-89
2023/06/04 02:23:14;;;;;;;2.85;1.30;;;16.40;72.80;;;;;;4946860;29;20027;-91
2023/06/04 02:25:41;;;;;;;3.90;1.63;;;16.30;72.80;;;;;;4943586;29;20034;-90
2023/06/04 02:28:08;;;;;;;2.88;1.30;;;16.30;72.90;;;;;;4957439;28;20523;-91
2023/06/04 02:30:34;;;;;;;3.33;1.42;;;16.30;72.70;;;;;;4957601;28;20531;-89
2023/06/04 02:33:03;;;;;;;2.90;1.23;;;16.20;72.70;;;;;;4941752;29;20042;-90
2023/06/04 02:35:30;;;;;;;4.53;1.58;;;16.30;73.10;;;;;;4957136;28;20050;-89
2023/06/04 02:37:58;;;;;;;3.78;1.60;;;16.20;73.10;;;;;;4966226;28;20126;-89
2023/06/04 02:40:29;;;;;;;4.20;1.75;;;16.20;73.30;;;;;;4957150;29;20043;-89
2023/06/04 02:42:58;;;;;;;4.03;1.58;;;16.20;73.20;;;;;;4957738;28;20492;-90
2023/06/04 02:45:26;;;;;;;2.95;1.40;;;16.10;73.00;;;;;;4957403;28;20481;-89
2023/06/04 02:48:00;;;;;;;5.32;1.63;;;16.10;73.10;;;;;;4957923;29;20023;-90
2023/06/04 02:50:25;;;;;;;4.72;1.60;;;16.10;73.20;;;;;;4957152;28;20231;-90
2023/06/04 02:52:51;;;;;;;5.35;1.30;;;16.10;73.50;;;;;;4943476;29;20538;-90
2023/06/04 02:55:20;;;;;;;4.88;1.58;;;16.00;73.40;;;;;;4956849;28;20031;-90
2023/06/04 02:57:46;;;;;;;4.20;1.90;;;16.00;73.50;;;;;;4956804;28;20030;-90
2023/06/04 03:00:13;;;;;;;5.60;1.83;;;16.00;73.70;;;;;;4956935;28;20019;-90
2023/06/04 03:02:41;;;;;;;3.25;1.30;;;16.00;74.00;;;;;;4956521;28;20023;-90
2023/06/04 03:05:10;;;;;;;2.38;1.23;;;16.00;74.10;;;;;;4956897;28;20063;-90
2023/06/04 03:07:43;;;;;;;3.75;1.33;;;16.00;74.20;;;;;;4956600;28;20026;-91
2023/06/04 03:10:14;;;;;;;3.42;1.55;;;15.90;74.30;;;;;;4956743;28;20114;-91
2023/06/04 03:12:40;;;;;;;2.22;1.35;;;15.90;74.30;;;;;;4956769;29;20031;-90
2023/06/04 03:15:09;;;;;;;4.57;1.80;;;15.90;74.20;;;;;;4957042;28;20031;-91
2023/06/04 03:17:35;;;;;;;6.90;1.50;;;15.80;74.20;;;;;;4956686;28;20023;-91
2023/06/04 03:20:01;;;;;;;3.92;1.70;;;15.80;74.20;;;;;;4958882;28;20101;-90
2023/06/04 03:22:30;;;;;;;4.78;1.55;;;15.70;74.40;;;;;;4976122;28;20026;-90
2023/06/04 03:24:58;;;;;;;2.53;1.70;;;15.70;74.40;;;;;;4976367;28;20071;-90
2023/06/04 03:27:24;;;;;;;6.32;1.83;;;15.70;74.70;;;;;;4955000;28;20062;-91
2023/06/04 03:29:50;;;;;;;4.65;1.65;;;15.70;74.80;;;;;;4959824;28;20030;-90
2023/06/04 03:32:16;;;;;;;6.35;1.50;;;15.70;74.90;;;;;;4959368;28;20030;-89
2023/06/04 03:34:45;;;;;;;3.33;1.45;;;15.60;75.00;;;;;;4959684;28;20125;-91
2023/06/04 03:37:11;;;;;;;2.60;1.38;;;15.60;75.20;;;;;;4959489;28;20026;-90
2023/06/04 03:39:39;;;;;;;4.40;1.65;;;15.60;75.30;;;;;;4959401;28;20486;-90
2023/06/04 03:42:10;;;;;;;3.40;1.73;;;15.60;75.30;;;;;;4959343;28;20498;-87
2023/06/04 03:44:38;;;;;;;5.40;1.85;;;15.50;75.50;;;;;;4976661;28;20022;-89
2023/06/04 03:47:09;;;;;;;4.15;1.73;;;15.60;75.70;;;;;;4959348;28;20402;-89
2023/06/04 03:49:35;;;;;;;7.60;1.90;;;15.50;75.80;;;;;;4959422;28;20019;-90
2023/06/04 03:52:01;;;;;;;6.18;2.03;;;15.50;76.00;;;;;;4959603;28;20034;-90
2023/06/04 03:54:31;;;;;;;6.47;2.33;;;15.50;76.20;;;;;;4971022;28;20026;-90
2023/06/04 03:57:00;;;;;;;5.38;2.03;;;15.40;76.20;;;;;;4970076;28;20468;-90
2023/06/04 03:59:25;;;;;;;4.63;1.85;;;15.40;76.20;;;;;;4959087;28;20388;-89
2023/06/04 04:01:51;;;;;;;3.38;1.58;;;15.40;76.40;;;;;;4966002;28;20027;-90
2023/06/04 04:04:20;;;;;;;4.00;2.00;;;15.40;76.50;;;;;;4964640;28;20046;-89
2023/06/04 04:06:45;;;;;;;3.42;1.60;;;15.40;76.70;;;;;;4947601;28;20085;-91
2023/06/04 04:09:12;;;;;;;4.93;1.98;;;15.30;76.80;;;;;;4963624;28;20019;-90
2023/06/04 04:11:38;;;;;;;4.22;1.92;;;15.30;77.10;;;;;;4947958;28;20117;-91
2023/06/04 04:14:04;;;;;;;4.85;1.90;;;15.30;77.20;;;;;;4963256;28;20054;-91
2023/06/04 04:16:29;;;;;;;4.20;1.58;;;15.30;77.50;;;;;;4963612;28;20027;-91
2023/06/04 04:18:58;;;;;;;4.13;1.50;;;15.30;77.60;;;;;;4962788;28;20027;-90
2023/06/04 04:21:24;;;;;;;6.00;1.73;;;15.30;77.70;;;;;;4943999;29;20078;-91
2023/06/04 04:23:51;;;;;;;4.85;1.95;;;15.30;77.80;;;;;;4959369;28;20035;-90
2023/06/04 04:26:17;;;;;;;3.85;1.52;;;15.20;77.90;;;;;;4943906;29;20023;-89
2023/06/04 04:28:43;;;;;;;2.85;1.63;;;15.30;78.00;;;;;;4951776;29;20035;-89
2023/06/04 04:31:09;;;;;;;3.83;1.80;;;15.20;77.90;;;;;;4969228;28;20497;-90
2023/06/04 04:33:41;;;;;;;6.07;1.77;;;15.20;78.20;;;;;;4944168;29;20134;-90
2023/06/04 04:36:13;;;;;;;3.92;1.98;;;15.20;78.40;;;;;;4959374;28;20038;-89
2023/06/04 04:38:40;;;;;;;5.90;1.88;;;15.20;78.40;;;;;;4959764;28;20081;-92
2023/06/04 04:41:08;;;;;;;5.72;1.83;;;15.20;78.60;;;;;;4960219;28;20036;-89
2023/06/04 04:43:39;;;;;;;6.60;2.42;;;15.10;78.70;;;;;;4946643;29;20031;-90
2023/06/04 04:46:09;;;;;;;;;;;15.10;79.00;;;;;;4963394;28;20103;-90
2023/06/04 04:48:35;;;;;;;3.85;1.95;;;15.20;79.60;;;;;;4960106;28;19906;-90
2023/06/04 04:51:01;;;;;;;6.90;2.40;;;15.20;79.50;;;;;;4943806;29;20039;-90
2023/06/04 04:53:30;;;;;;;3.40;1.90;;;15.10;79.50;;;;;;4944704;29;20033;-93
2023/06/04 04:56:01;;;;;;;7.40;2.13;;;15.10;79.90;;;;;;4960251;28;20027;-93
2023/06/04 04:58:26;;;;;;;3.55;1.90;;;15.20;80.20;;;;;;4943423;29;20498;-90
2023/06/04 05:00:55;;;;;;;4.03;1.85;;;15.10;80.50;;;;;;4958711;28;20031;-90
2023/06/04 05:03:21;;;;;;;5.03;1.85;;;15.10;80.60;;;;;;4959264;28;20020;-90
2023/06/04 05:05:46;;;;;;;5.03;2.20;;;15.10;80.80;;;;;;4958792;28;20097;-88
2023/06/04 05:08:12;;;;;;;4.13;1.73;;;15.10;80.90;;;;;;4959371;29;20056;-90
2023/06/04 05:10:38;;;;;;;5.10;2.00;;;15.10;81.00;;;;;;4970228;28;20399;-89
2023/06/04 05:13:06;;;;;;;4.65;2.10;;;15.20;81.10;;;;;;4968705;28;20039;-90
2023/06/04 05:15:31;;;;;;;6.63;2.25;;;15.20;81.20;;;;;;4958974;29;20550;-90
2023/06/04 05:18:03;;;;;;;4.60;2.22;;;15.20;81.40;;;;;;4959429;28;20110;-89
2023/06/04 05:20:29;;;;;;;6.68;2.08;;;15.20;81.30;;;;;;4958955;28;20492;-90
2023/06/04 05:22:55;;;;;;;3.03;1.92;;;15.20;81.50;;;;;;4958472;28;20051;-90
2023/06/04 05:25:28;;;;;;;5.18;1.80;;;15.30;81.70;;;;;;4958381;29;20066;-92
2023/06/04 05:27:55;;;;;;;5.25;2.00;;;15.30;81.80;;;;;;4958768;28;20031;-91
2023/06/04 05:30:21;;;;;;;7.30;2.50;;;15.30;81.90;;;;;;4958747;29;20055;-90
2023/06/04 05:32:47;;;;;;;4.43;1.80;;;15.30;82.10;;;;;;4958445;29;20490;-91
2023/06/04 05:35:15;;;;;;;4.70;1.80;;;15.30;82.30;;;;;;4962315;28;20031;-88
2023/06/04 05:37:41;;;;;;;3.95;1.92;;;15.40;82.50;;;;;;4974480;28;20034;-88
2023/06/04 05:40:09;;;;;;;4.63;1.90;;;15.40;82.60;;;;;;4963112;28;20031;-90
2023/06/04 05:42:38;;;;;;;4.45;1.88;;;15.40;82.60;;;;;;4958925;28;20340;-90
2023/06/04 05:45:08;;;;;;;3.95;1.90;;;15.50;82.90;;;;;;4958255;28;20027;-92
2023/06/04 05:47:33;;;;;;;4.90;2.28;;;15.50;82.90;;;;;;4958509;28;20363;-89
2023/06/04 05:50:02;;;;;;;3.95;1.88;;;15.50;82.90;;;;;;4958288;29;20031;-89
2023/06/04 05:52:28;;;;;;;7.38;2.30;;;15.50;82.70;;;;;;4958125;28;20035;-90
2023/06/04 05:54:53;;;;;;;6.15;2.13;;;15.50;82.80;;;;;;4942005;29;20027;-89
2023/06/04 05:57:20;;;;;;;6.90;2.42;;;15.60;82.90;;;;;;4958262;29;20059;-91
2023/06/04 05:59:48;;;;;;;5.22;2.17;;;15.60;83.00;;;;;;4959089;29;20015;-91
2023/06/04 06:02:17;;;;;;;4.43;1.80;;;15.60;83.10;;;;;;4958595;29;20546;-91
2023/06/04 06:04:43;;;;;;;5.30;1.98;;;15.60;83.10;;;;;;4958490;28;20038;-90
2023/06/04 06:07:11;;;;;;;7.18;2.10;;;15.70;83.30;;;;;;4957875;28;20031;-90
2023/06/04 06:09:39;;;;;;;5.85;2.47;;;15.70;83.30;;;;;;4958697;28;20172;-90
2023/06/04 06:12:08;;;;;;;6.40;2.25;;;15.70;83.40;;;;;;4958186;28;20380;-91
2023/06/04 06:14:37;;;;;;;4.82;1.90;;;15.70;83.20;;;;;;4942708;29;20471;-90
2023/06/04 06:17:06;;;;;;;4.47;1.80;;;15.80;83.30;;;;;;4941812;29;20027;-90
2023/06/04 06:19:44;;;;;;;3.45;1.60;;;15.80;83.60;;;;;;4957513;28;20122;-91
2023/06/04 06:22:10;;;;;;;5.75;1.83;;;15.80;83.60;;;;;;4956840;29;20066;-91
2023/06/04 06:24:36;;;;;;;6.53;2.13;;;15.90;83.70;;;;;;4957527;28;20019;-88
2023/06/04 06:27:02;;;;;;;5.35;1.65;;;15.90;83.60;;;;;;4970957;29;20078;-91
2023/06/04 06:29:33;;;;;;;4.63;1.90;;;16.00;83.30;;;;;;4964751;29;20047;-90
2023/06/04 06:31:59;;;;;;;2.95;1.63;;;16.00;83.40;;;;;;4958732;28;20034;-89
2023/06/04 06:34:28;;;;;;;4.82;1.85;;;16.10;83.70;;;;;;4958666;28;20039;-90
2023/06/04 06:36:57;;;;;;;3.30;1.60;;;16.10;83.90;;;;;;4957314;28;20019;-91
2023/06/04 06:39:22;;;;;;;4.68;1.90;;;16.20;84.10;;;;;;4957374;28;20081;-90
2023/06/04 06:41:48;;;;;;;5.03;2.00;;;16.20;84.20;;;;;;4959576;29;20391;-90
2023/06/04 06:44:17;;;;;;;5.07;1.98;;;16.20;84.20;;;;;;4968972;28;20027;-88
2023/06/04 06:46:43;;;;;;;6.28;1.92;;;16.30;84.10;;;;;;4968716;29;20034;-89
2023/06/04 06:49:08;;;;;;;3.05;1.52;;;16.30;84.40;;;;;;4957085;28;20020;-89
2023/06/04 06:51:36;;;;;;;3.75;1.75;;;16.40;84.60;;;;;;4957079;28;20118;-90
2023/06/04 06:54:11;;;;;;;5.65;1.90;;;16.40;84.30;;;;;;4957111;28;20055;-92
2023/06/04 06:56:37;;;;;;;3.80;1.85;;;16.50;84.20;;;;;;4957047;28;20027;-91
2023/06/04 06:59:03;;;;;;;6.32;1.95;;;16.50;83.90;;;;;;4956894;28;20034;-89
2023/06/04 07:01:29;;;;;;;5.38;1.67;;;16.50;83.50;;;;;;4956665;29;20054;-90
2023/06/04 07:03:54;;;;;;;3.47;1.65;;;16.60;83.80;;;;;;4956913;28;20111;-89
2023/06/04 07:06:20;;;;;;;3.20;1.70;;;16.60;84.00;;;;;;4958009;29;20034;-88
2023/06/04 07:08:47;;;;;;;5.07;2.10;;;16.60;83.90;;;;;;4956722;28;20460;-90
2023/06/04 07:11:13;;;;;;;5.93;2.42;;;16.70;83.80;;;;;;4956385;28;20070;-91
2023/06/04 07:13:50;;;;;;;4.68;2.30;;;16.70;83.80;;;;;;4957371;29;20055;-90
2023/06/04 07:16:17;;;;;;;3.53;1.80;;;16.80;83.90;;;;;;4956848;28;20023;-89
2023/06/04 07:18:45;;;;;;;3.95;1.60;;;16.80;84.10;;;;;;4956821;29;20031;-91
2023/06/04 07:21:13;;;;;;;4.18;1.63;;;16.90;84.10;;;;;;4956216;29;20082;-91
2023/06/04 07:23:39;;;;;;;4.18;1.48;;;17.00;84.10;;;;;;4940684;29;20483;-90
2023/06/04 07:26:05;;;;;;;3.42;1.50;;;17.00;84.00;;;;;;4956374;28;20121;-90
2023/06/04 07:28:31;;;;;;;4.25;1.65;;;17.10;84.20;;;;;;4956427;28;20019;-90
2023/06/04 07:31:02;;;;;;;5.63;1.98;;;17.10;84.10;;;;;;4955971;28;20027;-90
2023/06/04 07:33:30;;;;;;;7.28;1.40;;;17.20;84.30;;;;;;4940854;29;20389;-91
2023/06/04 07:36:02;;;;;;;3.40;1.60;;;17.20;84.10;;;;;;4940091;28;20032;-90
2023/06/04 07:38:33;;;;;;;3.78;1.80;;;17.30;84.30;;;;;;4957606;29;20093;-91
2023/06/04 07:40:59;;;;;;;3.35;1.35;;;17.40;84.20;;;;;;4961687;28;20023;-90
2023/06/04 07:43:27;;;;;;;4.93;1.88;;;17.40;83.90;;;;;;4959232;29;20019;-89
2023/06/04 07:45:53;;;;;;;3.47;1.20;;;17.50;83.50;;;;;;4947396;29;20038;-90
2023/06/04 07:48:19;;;;;;;4.28;1.65;;;17.50;83.00;;;;;;4956347;28;20023;-85
2023/06/04 07:50:44;;;;;;;5.10;1.75;;;17.60;82.80;;;;;;4938991;29;20063;-85
2023/06/04 07:53:10;;;;;;;3.13;1.25;;;17.70;82.10;;;;;;4939807;29;20097;-85
2023/06/04 07:55:36;;;;;;;3.95;1.58;;;17.70;81.50;;;;;;4955044;28;20127;-83
2023/06/04 07:58:01;;;;;;;4.57;1.77;;;17.80;82.00;;;;;;4954462;29;20034;-83
2023/06/04 08:00:27;;;;;;;4.72;1.42;;;17.90;82.00;;;;;;4939163;29;20636;-83
2023/06/04 08:02:53;;;;;;;4.28;1.45;;;18.00;81.70;;;;;;4954921;28;20039;-84
2023/06/04 08:05:18;;;;;;;3.95;1.40;;;18.00;81.30;;;;;;4955583;29;20027;-82
2023/06/04 08:07:44;;;;;;;4.30;1.70;;;18.10;81.50;;;;;;4955020;29;20027;-84
2023/06/04 08:10:10;;;;;;;5.70;1.80;;;18.10;82.30;;;;;;4954689;29;20531;-82
2023/06/04 08:12:36;;;;;;;3.53;1.20;;;18.20;81.50;;;;;;4956374;29;20035;-83
2023/06/04 08:15:01;;;;;;;3.97;1.60;;;18.20;81.20;;;;;;4956377;29;20457;-82
2023/06/04 08:17:27;;;;;;;4.20;1.50;;;18.30;81.60;;;;;;4961555;29;20083;-84
2023/06/04 08:19:52;;;;;;;2.90;1.40;;;18.40;81.70;;;;;;4945082;29;20039;-84
2023/06/04 08:22:18;;;;;;;2.28;1.45;;;18.40;81.80;;;;;;4968170;28;20087;-84
2023/06/04 08:24:44;;;;;;;4.05;1.30;;;18.50;81.20;;;;;;4976036;28;20352;-84
2023/06/04 08:27:10;;;;;;;3.03;1.27;;;18.50;80.70;;;;;;4943753;28;20027;-84
2023/06/04 08:29:36;;;;;;;2.92;1.25;;;18.60;80.70;;;;;;4952838;28;20035;-83
2023/06/04 08:32:03;;;;;;;2.35;1.23;;;18.70;81.20;;;;;;4958012;28;20113;-84
2023/06/04 08:34:29;;;;;;;3.35;1.40;;;18.80;81.90;;;;;;4975018;28;20038;-84
2023/06/04 08:36:55;;;;;;;7.05;1.20;;;18.80;82.30;;;;;;4987614;28;20031;-88
2023/06/04 08:39:23;;;;;;;3.72;1.30;;;18.90;82.20;;;;;;4981170;28;20034;-88
2023/06/04 08:41:56;;;;;;;2.17;1.30;;;18.90;81.60;;;;;;4998183;28;20026;-87
2023/06/04 08:44:25;;;;;;;4.28;1.48;;;19.00;81.40;;;;;;4974734;28;20039;-92
2023/06/04 08:46:56;;;;;;;3.38;1.20;;;19.10;81.30;;;;;;4961723;28;20106;-91
2023/06/04 08:49:46;;;;;;;;;;;;;;;;;;;;;
2023/06/04 08:52:15;;;;;;;3.25;1.10;;;19.20;80.30;;;;;;4981021;28;20023;-90
2023/06/04 08:55:03;;;;;;;4.55;1.60;;;19.30;80.40;;;;;;4966511;28;20478;-90
2023/06/04 08:57:33;;;;;;;4.82;1.10;;;19.30;79.80;;;;;;4960635;28;20038;-88
2023/06/04 09:00:08;;;;;;;1.67;1.10;;;19.40;79.60;;;;;;4996104;28;20026;-89
2023/06/04 09:02:37;;;;;;;2.97;1.23;;;19.40;79.20;;;;;;4980033;28;20015;-89
2023/06/04 09:05:10;;;;;;;5.07;1.30;;;19.50;78.80;;;;;;4975033;28;20023;-89
2023/06/04 09:07:43;;;;;;;2.38;1.10;;;19.60;78.70;;;;;;4967267;28;20030;-90
2023/06/04 09:10:12;;;;;;;4.93;1.02;;;19.60;79.10;;;;;;4933252;28;20387;-91
2023/06/04 09:12:45;;;;;;;2.08;0.95;;;19.70;79.50;;;;;;4963484;28;20105;-91
2023/06/04 09:15:16;;;;;;;1.92;1.10;;;19.70;79.80;;;;;;4965935;28;20031;-91
2023/06/04 09:17:44;;;;;;;2.50;1.13;;;19.80;79.90;;;;;;4967371;28;20074;-90
2023/06/04 09:20:27;;;;;;;3.83;1.20;;;19.90;79.80;;;;;;4948563;28;20059;-89
2023/06/04 09:22:53;;;;;;;3.28;1.00;;;19.90;79.60;;;;;;4962990;28;20098;-89
2023/06/04 09:25:27;;;;;;;2.40;1.30;;;20.00;79.60;;;;;;4963380;28;20037;-90
2023/06/04 09:28:05;;;;;;;4.15;1.20;;;20.00;79.70;;;;;;4963794;28;20090;-89
2023/06/04 09:30:33;;;;;;;4.00;1.13;;;20.10;79.00;;;;;;4963854;28;20093;-90
2023/06/04 09:33:18;;;;;;;4.47;1.60;;;20.20;78.70;;;;;;4963538;28;20416;-89
2023/06/04 09:35:54;;;;;;;2.78;1.10;;;20.20;78.20;;;;;;4964100;28;20134;-91
2023/06/04 09:38:20;;;;;;;3.25;1.30;;;20.30;78.00;;;;;;4963579;28;20122;-89
2023/06/04 09:40:49;;;;;;;1.98;1.13;;;20.40;77.90;;;;;;4946767;28;20062;-89
2023/06/04 09:43:23;;;;;;;2.67;1.00;;;20.40;77.70;;;;;;4962828;28;20023;-90
2023/06/04 09:45:49;;;;;;;2.15;1.02;;;20.50;77.50;;;;;;4962600;28;20092;-90
2023/06/04 09:48:21;;;;;;;1.75;1.17;;;20.60;77.50;;;;;;4964410;28;20498;-89
2023/06/04 09:50:48;;;;;;;1.42;0.90;;;20.60;77.10;;;;;;4979911;28;20026;-89
2023/06/04 09:53:25;;;;;;;1.70;0.90;;;20.70;76.60;;;;;;4963133;28;20119;-89
2023/06/04 09:56:06;;;;;;;2.08;1.10;;;20.70;75.70;;;;;;4962150;28;20027;-90
2023/06/04 09:58:35;;;;;;;2.95;1.20;;;20.80;75.20;;;;;;4961608;28;20049;-91
2023/06/04 10:01:06;;;;;;;2.03;1.10;;;20.90;74.50;;;;;;4945190;28;20117;-91
2023/06/04 10:03:34;;;;;;;2.55;1.00;;;20.90;73.50;;;;;;4962006;28;20031;-90
2023/06/04 10:06:03;;;;;;;5.40;1.27;;;21.00;73.50;;;;;;4964883;28;20435;-88
2023/06/04 10:08:30;;;;;;;4.28;1.33;;;21.00;73.90;;;;;;4997954;28;20114;-89
2023/06/04 10:11:01;;;;;;;2.13;0.77;;;21.10;73.10;;;;;;4957963;28;20486;-87
2023/06/04 10:13:32;;;;;;;3.20;1.08;;;21.10;71.60;;;;;;4974874;28;20026;-89
2023/06/04 10:15:59;;;;;;;2.92;1.30;;;21.20;70.90;;;;;;4979975;28;20030;-88
2023/06/04 10:18:27;;;;;;;1.90;0.98;;;21.20;71.00;;;;;;4963114;28;20027;-89
2023/06/04 10:21:13;;;;;;;2.50;1.08;;;21.30;71.60;;;;;;4965113;28;20089;-90
2023/06/04 10:23:40;;;;;;;1.55;0.90;;;21.40;72.10;;;;;;4961888;28;20027;-90
2023/06/04 10:26:06;;;;;;;3.97;1.08;;;21.50;71.50;;;;;;4945413;28;20038;-89
2023/06/04 10:28:34;;;;;;;8.10;1.35;;;21.50;69.90;;;;;;4944449;28;20027;-90
2023/06/04 10:31:00;;;;;;;3.78;1.20;;;21.50;69.30;;;;;;4960443;28;20101;-88
2023/06/04 10:33:34;;;;;;;2.08;1.10;;;21.60;69.20;;;;;;4945105;28;20082;-88
2023/06/04 10:50:57;;;;;;;4.28;1.23;;;21.90;69.70;;;;;;4842792;29;20034;-89
2023/06/04 10:54:12;;;;;;;3.90;1.38;;;22.00;67.20;;;;;;4847223;29;20145;-91
2023/06/04 11:11:18;;;;;;;2.47;1.17;;;22.30;67.80;;;;;;4842876;29;20053;-90
2023/06/04 11:14:15;;;;;;;;;;;;;;;;;;;;;
2023/06/04 11:17:11;;;;;;;;;;;;;;;;;;;;;
2023/06/04 11:20:58;;;;;;;;;;;;;;;;;;;;;
2023/06/04 11:23:22;;;;;;;;;;;;;;;;;;;;;
2023/06/04 11:30:28;;;;;;;2.28;1.15;;;22.60;68.00;;;;;;4907233;29;20044;-87
2023/06/04 11:37:03;;;;;;;2.63;0.98;;;22.80;67.70;;;;;;4901468;29;20393;-90
2023/06/04 11:40:05;;;;;;;;;;;;;;;;;;;;;
2023/06/04 11:50:20;;;;;;;2.85;1.05;;;23.00;66.30;;;;;;4936919;29;20050;-92
2023/06/04 11:53:33;;;;;;;;;;;;;;;;;;;;;
2023/06/04 11:56:02;;;;;;;5.63;1.13;;;23.10;64.50;;;;;;4935931;29;20032;-89
2023/06/04 11:58:31;;;;;;;9.13;1.65;;;23.20;63.50;;;;;;4935729;29;20032;-90
2023/06/04 12:01:35;;;;;;;6.72;1.35;;;23.20;62.40;;;;;;4957641;28;20039;-90
2023/06/04 12:04:47;;;;;;;;;;;;;;;;;;;;;
2023/06/04 12:07:37;;;;;;;2.22;1.08;;;23.30;62.90;;;;;;4975419;28;20031;-89
2023/06/04 12:10:11;;;;;;;3.90;1.02;;;23.40;63.50;;;;;;4976979;28;20031;-90
2023/06/04 12:12:56;;;;;;;1.67;1.00;;;23.40;63.60;;;;;;4979115;28;20050;-90
2023/06/04 12:15:39;;;;;;;1.88;1.15;;;23.50;63.10;;;;;;4977896;28;20471;-90
2023/06/04 12:18:15;;;;;;;;;;;;;;;;;;;;;
2023/06/04 12:20:53;;;;;;;;;;;;;;;;;;;;;
2023/06/04 12:23:45;;;;;;;;;;;;;;;;;;;;;
2023/06/04 12:26:40;;;;;;;5.30;1.33;;;23.70;62.50;;;;;;5015934;28;20049;-90
2023/06/04 12:29:43;;;;;;;3.88;1.40;;;23.80;62.00;;;;;;4983670;28;20445;-90
2023/06/04 12:32:15;;;;;;;2.78;1.30;;;23.80;62.80;;;;;;4976544;28;20133;-92
2023/06/04 12:42:38;;;;;;;;;;;;;;;;;;;;;
2023/06/04 12:48:33;;;;;;;3.40;1.60;;;24.10;60.50;;;;;;4906768;28;20035;-85
2023/06/04 12:50:59;;;;;;;2.90;1.15;;;24.10;60.80;;;;;;4984046;28;20130;-85
2023/06/04 12:53:25;;;;;;;2.38;1.50;;;24.20;60.90;;;;;;4983181;28;20066;-86
2023/06/04 12:55:50;;;;;;;10.27;1.98;;;24.20;60.90;;;;;;4981702;28;20407;-86
2023/06/04 12:58:17;;;;;;;3.53;1.40;;;24.30;61.20;;;;;;4964180;28;20045;-86
2023/06/04 13:00:43;;;;;;;2.83;1.30;;;24.30;61.60;;;;;;4997591;28;20023;-84
2023/06/04 13:03:11;;;;;;;1.75;1.00;;;24.40;61.90;;;;;;4997617;28;20018;-85
2023/06/04 13:06:02;;;;;;;2.92;1.30;;;24.40;61.60;;;;;;4964781;28;20085;-91
2023/06/04 13:08:37;;;;;;;1.80;1.30;;;24.50;61.30;;;;;;4954730;28;20093;-91
2023/06/04 13:11:15;;;;;;;5.60;1.40;;;24.50;61.30;;;;;;4981519;28;20030;-90
2023/06/04 13:13:49;;;;;;;2.45;1.23;;;24.50;60.20;;;;;;4966656;28;20151;-89
2023/06/04 13:16:38;;;;;;;;;;;;;;;;;;;;;
2023/06/04 13:19:20;;;;;;;;;;;;;;;;;;;;;
2023/06/04 13:22:01;;;;;;;4.15;1.33;;;24.60;60.90;;;;;;4980423;28;20142;-92
2023/06/04 13:24:45;;;;;;;;;;;;;;;;;;;;;
2023/06/04 13:27:22;;;;;;;;;;;;;;;;;;;;;
2023/06/04 13:29:56;;;;;;;4.45;1.20;;;24.70;59.10;;;;;;4983194;28;20535;-91
2023/06/04 13:32:27;;;;;;;3.63;1.42;;;24.80;59.20;;;;;;4998271;28;20023;-89
2023/06/04 13:34:55;;;;;;;4.65;1.88;;;24.80;59.30;;;;;;4969448;28;20034;-91
2023/06/04 13:43:10;;;;;;;5.03;2.40;;;25.00;58.50;;;;;;4972703;28;20463;-91
2023/06/04 13:45:40;;;;;;;2.45;1.70;;;25.00;59.10;;;;;;4976834;28;20122;-91
2023/06/04 13:48:07;;;;;;;2.60;1.20;;;25.00;59.10;;;;;;4977365;28;20030;-90
2023/06/04 13:50:35;;;;;;;2.40;1.40;;;25.10;58.80;;;;;;4978707;28;20463;-91
2023/06/04 13:53:07;;;;;;;4.25;1.50;;;25.10;59.00;;;;;;4977150;28;20398;-89
2023/06/04 13:55:35;;;;;;;2.95;1.60;;;25.10;58.60;;;;;;4961915;28;20114;-90
2023/06/04 13:58:13;;;;;;;3.13;1.70;;;25.10;57.90;;;;;;4962553;28;20034;-91
2023/06/04 14:00:44;;;;;;;5.10;1.40;;;25.20;57.40;;;;;;4975289;28;20077;-91
2023/06/04 14:03:10;;;;;;;2.85;1.50;;;25.20;57.80;;;;;;4963333;28;20034;-90
2023/06/04 14:05:41;;;;;;;2.55;1.40;;;25.30;58.10;;;;;;4960656;28;20039;-90
2023/06/04 14:08:16;;;;;;;2.63;1.20;;;25.30;57.90;;;;;;4977133;28;20027;-90
2023/06/04 14:10:48;;;;;;;2.70;1.50;;;25.30;58.50;;;;;;4976597;28;20023;-91
2023/06/04 14:13:28;;;;;;;2.92;1.30;;;25.30;58.80;;;;;;4977751;28;20027;-91
2023/06/04 14:16:01;;;;;;;3.92;1.50;;;25.40;58.90;;;;;;4963498;28;20062;-90
2023/06/04 14:18:30;;;;;;;3.92;1.40;;;25.40;59.10;;;;;;4966842;28;20027;-92
2023/06/04 14:21:03;;;;;;;2.50;1.65;;;25.40;59.00;;;;;;4991381;28;20018;-92
2023/06/04 14:23:29;;;;;;;3.50;1.88;;;25.50;58.20;;;;;;4986635;28;20035;-92
2023/06/04 14:26:53;;;;;;;;;;;;;;;;;;;;;